Time;durP1;ratioP1;P1;durP2;ratioP2;P2;SDS_P1;SDS_P2;PMS_P1;PMS_P2;Temp;Humidity;BMP_temperature;BMP_pressure;BME280_temperature;BME280_humidity;BME280_pressure;Samples;Min_cycle;Max_cycle;Signal;HPM_P1;HPM_P2
2023/07/21 00:02:01;;;;;;;4.20;2.70;;;;;;;21.03;77.25;94412.00;5071018;28;20655;-79
2023/07/21 00:04:28;;;;;;;5.35;2.95;;;;;;;21.06;77.44;94408.41;5070728;28;20569;-78
2023/07/21 00:06:55;;;;;;;5.00;2.88;;;;;;;21.08;77.01;94411.56;5078933;28;20213;-80
2023/07/21 00:09:22;;;;;;;6.65;3.05;;;;;;;21.10;76.94;94409.19;5085996;28;20230;-79
2023/07/21 00:11:48;;;;;;;6.55;2.63;;;;;;;21.17;75.66;94398.16;5081356;28;20684;-79
2023/07/21 00:14:16;;;;;;;4.43;2.65;;;;;;;21.20;75.64;94397.38;5071194;28;20202;-79
2023/07/21 00:16:44;;;;;;;6.82;3.08;;;;;;;20.99;77.07;94397.44;5069847;28;20821;-78
2023/07/21 00:19:12;;;;;;;4.20;2.72;;;;;;;20.96;77.57;94398.22;5071665;28;20670;-79
2023/07/21 00:21:39;;;;;;;4.88;3.58;;;;;;;20.94;77.50;94390.38;5071741;28;20195;-79
2023/07/21 00:24:06;;;;;;;6.20;3.20;;;;;;;20.79;77.84;94394.34;5071425;28;20203;-79
2023/07/21 00:26:35;;;;;;;3.45;2.88;;;;;;;20.74;78.21;94391.22;5070016;28;20654;-79
2023/07/21 00:29:02;;;;;;;7.97;3.67;;;;;;;20.68;79.13;94387.31;5088719;28;20315;-79
2023/07/21 00:31:29;;;;;;;6.32;3.00;;;;;;;20.60;80.00;94383.03;5084116;28;20709;-79
2023/07/21 00:33:57;;;;;;;4.95;3.33;;;;;;;20.53;79.98;94384.59;5076986;28;20207;-79
2023/07/21 00:36:24;;;;;;;7.57;3.60;;;;;;;20.61;79.69;94387.34;5069248;28;20569;-79
2023/07/21 00:38:51;;;;;;;6.70;2.80;;;;;;;20.65;79.50;94386.13;5075145;28;20692;-79
2023/07/21 00:41:20;;;;;;;5.75;3.10;;;;;;;20.70;78.89;94379.44;5091004;28;20619;-79
2023/07/21 00:43:46;;;;;;;4.63;3.20;;;;;;;20.86;78.98;94386.06;5088239;28;20285;-80
2023/07/21 00:46:13;;;;;;;4.38;2.97;;;;;;;20.79;79.32;94388.06;5060501;28;20667;-79
2023/07/21 00:48:40;;;;;;;8.48;3.88;;;;;;;20.81;79.48;94391.97;5069231;28;20226;-80
2023/07/21 00:51:11;;;;;;;6.93;3.20;;;;;;;20.91;79.09;94384.88;5071995;28;20252;-79
2023/07/21 00:53:38;;;;;;;7.43;3.25;;;;;;;20.94;78.74;94378.56;5073394;28;20272;-80
2023/07/21 00:56:06;;;;;;;8.18;3.08;;;;;;;20.85;78.86;94376.25;5073906;28;20676;-79
2023/07/21 00:58:33;;;;;;;7.85;3.47;;;;;;;20.84;78.74;94369.16;5065222;28;20619;-79
2023/07/21 01:01:01;;;;;;;10.10;3.33;;;;;;;20.84;77.70;94368.38;5067612;28;20700;-80
2023/07/21 01:03:29;;;;;;;6.25;2.92;;;;;;;20.74;78.39;94363.72;5069828;28;20191;-79
2023/07/21 01:05:56;;;;;;;4.93;2.72;;;;;;;20.81;78.27;94363.66;5068227;28;20829;-80
2023/07/21 01:08:25;;;;;;;7.78;3.50;;;;;;;20.73;79.08;94362.13;5067456;28;20214;-80
2023/07/21 01:10:52;;;;;;;5.60;3.22;;;;;;;20.73;79.00;94362.91;5066652;28;20199;-80
2023/07/21 01:13:21;;;;;;;8.02;3.20;;;;;;;20.64;79.33;94350.78;5068410;28;20199;-80
2023/07/21 01:15:51;;;;;;;5.07;3.10;;;;;;;20.73;79.88;94340.91;5068558;28;20682;-79
2023/07/21 01:18:22;;;;;;;7.13;3.38;;;;;;;20.66;80.42;94335.41;5068843;28;20202;-79
2023/07/21 01:20:50;;;;;;;5.47;3.38;;;;;;;20.56;80.80;94326.00;5068792;28;20209;-79
2023/07/21 01:23:26;;;;;;;5.40;3.40;;;;;;;20.48;81.37;94329.97;5068606;28;20203;-80
2023/07/21 01:25:55;;;;;;;3.92;2.97;;;;;;;20.65;80.49;94331.06;5068502;28;20289;-79
2023/07/21 01:28:23;;;;;;;6.97;3.47;;;;;;;20.58;80.23;94334.66;5071374;28;20230;-80
2023/07/21 01:30:53;;;;;;;5.50;3.40;;;;;;;20.56;79.89;94330.72;5066660;28;20251;-79
2023/07/21 01:33:22;;;;;;;5.80;3.03;;;;;;;20.52;80.33;94338.97;5067536;28;20735;-79
2023/07/21 01:35:50;;;;;;;9.50;3.50;;;;;;;20.44;80.14;94340.19;5065188;28;20226;-80
2023/07/21 01:38:19;;;;;;;3.50;2.72;;;;;;;20.42;79.30;94347.28;5066847;28;20207;-78
2023/07/21 01:40:47;;;;;;;3.92;2.80;;;;;;;20.39;79.89;94359.06;5069423;28;20203;-79
2023/07/21 01:43:16;;;;;;;5.65;3.50;;;;;;;20.43;80.29;94359.84;5068779;28;20824;-78
2023/07/21 01:45:43;;;;;;;7.13;3.65;;;;;;;20.40;80.31;94364.19;5068401;28;20302;-79
2023/07/21 01:48:10;;;;;;;6.45;3.35;;;;;;;20.42;79.67;94370.06;5067385;28;20191;-78
2023/07/21 01:50:41;;;;;;;4.97;3.28;;;;;;;20.49;79.43;94375.59;5067340;28;20231;-78
2023/07/21 01:53:13;;;;;;;4.85;3.38;;;;;;;20.51;79.53;94378.69;5064507;28;20199;-78
2023/07/21 01:55:45;;;;;;;7.32;3.53;;;;;;;20.49;79.76;94374.78;5067524;28;20217;-78
2023/07/21 01:58:14;;;;;;;6.85;3.80;;;;;;;20.50;80.23;94379.88;5067212;28;20203;-78
2023/07/21 02:00:44;;;;;;;9.20;3.28;;;;;;;20.49;80.08;94381.09;5071329;28;20553;-78
2023/07/21 02:03:11;;;;;;;4.88;3.10;;;;;;;20.53;79.52;94379.09;5069119;28;20623;-78
2023/07/21 02:05:38;;;;;;;6.35;2.90;;;;;;;20.55;79.01;94390.50;5069173;28;20211;-79
2023/07/21 02:08:05;;;;;;;9.18;3.08;;;;;;;20.36;79.30;94384.66;5069171;28;20215;-79
2023/07/21 02:10:32;;;;;;;7.85;3.30;;;;;;;20.30;78.82;94384.22;5069112;28;20280;-78
2023/07/21 02:12:59;;;;;;;4.05;3.30;;;;;;;20.18;79.81;94384.63;5082582;28;20654;-78
2023/07/21 02:15:26;;;;;;;7.53;3.78;;;;;;;20.34;80.67;94385.00;5069069;28;20211;-78
2023/07/21 02:17:54;;;;;;;5.55;3.30;;;;;;;20.42;80.24;94375.59;5068981;28;20674;-79
2023/07/21 02:20:21;;;;;;;6.57;3.10;;;;;;;20.32;82.86;94383.81;5068994;28;20235;-79
2023/07/21 02:22:48;;;;;;;5.50;4.05;;;;;;;20.26;83.51;94388.94;5074552;28;20202;-78
2023/07/21 02:25:15;;;;;;;7.65;3.55;;;;;;;20.28;83.95;94388.53;5089268;28;20292;-78
2023/07/21 02:27:42;;;;;;;10.10;3.75;;;;;;;20.26;84.31;94377.94;5071549;28;20207;-79
2023/07/21 02:30:10;;;;;;;6.90;3.40;;;;;;;20.27;84.33;94381.47;5068699;28;20683;-80
2023/07/21 02:32:37;;;;;;;8.38;4.03;;;;;;;20.39;83.60;94379.13;5068489;28;20235;-78
2023/07/21 02:35:06;;;;;;;8.60;3.95;;;;;;;20.44;83.31;94384.22;5068448;28;20220;-78
2023/07/21 02:37:33;;;;;;;6.47;3.58;;;;;;;20.41;83.25;94371.25;5069181;28;20211;-79
2023/07/21 02:40:00;;;;;;;4.78;3.40;;;;;;;20.39;83.50;94376.38;5068753;28;20226;-79
2023/07/21 02:42:26;;;;;;;7.68;3.83;;;;;;;20.46;82.99;94372.81;5068561;28;20218;-79
2023/07/21 02:44:53;;;;;;;5.13;2.90;;;;;;;20.41;83.38;94368.50;5068263;28;20685;-80
2023/07/21 02:47:20;;;;;;;4.63;3.55;;;;;;;20.41;82.74;94374.00;5068740;28;20347;-80
2023/07/21 02:49:46;;;;;;;4.65;3.55;;;;;;;20.39;82.35;94372.81;5067554;28;20223;-79
2023/07/21 02:52:15;;;;;;;7.10;4.13;;;;;;;20.25;83.04;94376.34;5068107;28;20203;-80
2023/07/21 02:54:41;;;;;;;7.30;4.18;;;;;;;20.10;84.32;94381.09;5067788;28;20202;-80
2023/07/21 02:57:09;;;;;;;5.90;3.85;;;;;;;20.08;84.28;94374.44;5068121;28;20627;-79
2023/07/21 02:59:36;;;;;;;8.02;3.92;;;;;;;19.99;84.50;94379.53;5081896;28;20240;-79
2023/07/21 03:02:03;;;;;;;7.60;3.83;;;;;;;19.92;85.13;94379.53;5067739;28;20203;-79
2023/07/21 03:04:34;;;;;;;5.90;3.97;;;;;;;19.88;85.15;94374.81;5068693;28;20203;-80
2023/07/21 03:07:01;;;;;;;6.03;4.00;;;;;;;19.85;85.03;94383.06;5068533;28;20280;-80
2023/07/21 03:09:29;;;;;;;4.57;3.58;;;;;;;19.85;85.06;94392.09;5067702;28;20234;-80
2023/07/21 03:11:57;;;;;;;6.32;3.90;;;;;;;19.73;86.07;94389.72;5067481;28;20268;-80
2023/07/21 03:14:24;;;;;;;5.80;3.83;;;;;;;19.63;87.12;94396.00;5067616;28;20242;-79
2023/07/21 03:16:51;;;;;;;6.53;3.63;;;;;;;19.86;84.63;94388.16;5075557;28;20646;-80
2023/07/21 03:19:18;;;;;;;10.60;3.70;;;;;;;20.14;83.80;94386.59;5073355;28;20285;-80
2023/07/21 03:21:45;;;;;;;6.20;3.13;;;;;;;20.43;81.90;94388.16;5068050;28;20206;-79
2023/07/21 03:24:12;;;;;;;5.55;3.80;;;;;;;20.77;80.84;94393.19;5068239;28;20199;-80
2023/07/21 03:26:40;;;;;;;5.78;3.40;;;;;;;21.20;78.56;94391.84;5067571;28;20359;-79
2023/07/21 03:29:07;;;;;;;5.30;3.65;;;;;;;21.59;76.96;94393.63;5071053;28;20709;-79
2023/07/21 03:31:34;;;;;;;6.88;3.85;;;;;;;22.06;75.01;94407.88;5066863;28;20439;-79
2023/07/21 03:34:02;;;;;;;11.95;4.30;;;;;;;22.37;73.74;94395.03;5067756;28;20194;-78
2023/07/21 03:36:29;;;;;;;7.90;3.67;;;;;;;22.52;73.13;94407.50;5067970;28;20287;-79
2023/07/21 03:38:55;;;;;;;6.10;3.78;;;;;;;22.44;72.80;94412.28;5067773;28;20214;-79
2023/07/21 03:41:22;;;;;;;9.50;3.30;;;;;;;22.21;73.29;94409.34;5067832;28;20209;-79
2023/07/21 03:43:50;;;;;;;6.25;3.63;;;;;;;22.06;74.19;94407.88;5067291;28;21076;-79
2023/07/21 03:46:17;;;;;;;3.30;2.90;;;;;;;21.79;68.77;94416.72;5067831;28;20260;-80
2023/07/21 03:48:44;;;;;;;6.45;3.80;;;;;;;22.14;70.20;94417.69;5057901;28;20336;-81
2023/07/21 03:51:11;;;;;;;7.47;3.72;;;;;;;22.64;69.33;94410.53;5067864;28;20230;-82
2023/07/21 03:53:38;;;;;;;8.00;3.25;;;;;;;22.54;68.14;94411.41;5067797;28;20569;-81
2023/07/21 03:56:05;;;;;;;6.10;3.85;;;;;;;22.22;70.53;94416.44;5067482;28;20219;-81
2023/07/21 03:58:32;;;;;;;13.63;7.30;;;;;;;22.07;63.02;94420.50;5056395;28;20203;-81
2023/07/21 04:01:00;;;;;;;13.27;6.07;;;;;;;21.87;67.13;94428.47;5071231;28;20199;-81
2023/07/21 04:03:28;;;;;;;9.60;6.50;;;;;;;21.99;71.47;94425.31;5070609;28;20206;-81
2023/07/21 04:05:55;;;;;;;6.80;4.93;;;;;;;22.03;70.32;94425.25;5070959;28;20211;-81
2023/07/21 04:08:21;;;;;;;13.55;4.55;;;;;;;22.10;71.89;94441.75;5071429;28;20203;-80
2023/07/21 04:10:48;;;;;;;11.18;5.00;;;;;;;22.43;72.11;94438.31;5071180;28;20226;-80
2023/07/21 04:13:15;;;;;;;12.75;4.47;;;;;;;23.80;70.21;94437.19;5071296;28;20233;-81
2023/07/21 04:15:42;;;;;;;8.05;3.95;;;;;;;25.32;64.56;94417.22;5070829;28;20206;-79
2023/07/21 04:18:10;;;;;;;11.43;4.30;;;;;;;26.50;60.71;94421.75;5070321;28;20269;-79
2023/07/21 04:20:37;;;;;;;6.30;4.00;;;;;;;27.43;58.26;94422.88;5070790;28;20199;-80
2023/07/21 04:23:03;;;;;;;8.82;4.43;;;;;;;28.96;53.56;94418.13;5071134;28;20240;-79
2023/07/21 04:25:32;;;;;;;9.68;4.55;;;;;;;29.68;51.30;94422.69;5071269;28;20207;-80
2023/07/21 04:27:59;;;;;;;11.55;4.55;;;;;;;30.01;50.39;94432.25;5070813;28;20214;-80
2023/07/21 04:30:26;;;;;;;11.48;4.32;;;;;;;30.53;49.11;94429.78;5069542;28;20504;-81
2023/07/21 04:32:53;;;;;;;9.45;4.70;;;;;;;30.91;47.08;94433.03;5070494;28;20263;-80
2023/07/21 04:35:21;;;;;;;6.63;4.25;;;;;;;31.16;46.24;94425.63;5071188;28;20211;-80
2023/07/21 04:37:48;;;;;;;9.63;4.95;;;;;;;31.68;45.19;94428.13;5070286;28;20195;-80
2023/07/21 04:40:15;;;;;;;7.55;4.72;;;;;;;32.51;43.30;94408.25;5070266;28;20207;-80
2023/07/21 04:42:43;;;;;;;6.60;4.60;;;;;;;32.05;43.19;94417.59;5070090;28;20211;-81
2023/07/21 04:45:12;;;;;;;10.70;4.95;;;;;;;32.93;41.44;94408.97;5070741;28;20257;-81
2023/07/21 04:47:40;;;;;;;8.63;4.25;;;;;;;32.37;42.11;94416.09;5070251;28;20341;-81
2023/07/21 04:50:09;;;;;;;6.32;4.88;;;;;;;32.38;42.38;94416.88;5070486;28;20686;-82
2023/07/21 04:52:37;;;;;;;6.20;4.55;;;;;;;33.36;40.86;94423.63;5073611;28;20294;-80
2023/07/21 04:55:06;;;;;;;9.40;4.25;;;;;;;32.96;40.55;94424.81;5070399;28;20307;-80
2023/07/21 04:57:34;;;;;;;7.72;4.60;;;;;;;33.10;41.01;94426.91;5070499;28;20282;-81
2023/07/21 05:00:00;;;;;;;10.68;4.55;;;;;;;32.23;42.29;94422.38;5072199;28;20203;-80
2023/07/21 05:02:28;;;;;;;7.60;4.35;;;;;;;33.32;40.23;94426.63;5070712;28;20246;-81
2023/07/21 05:04:54;;;;;;;6.57;4.53;;;;;;;34.48;38.57;94424.38;5070212;28;20211;-80
2023/07/21 05:07:21;;;;;;;9.00;4.28;;;;;;;34.95;37.47;94433.81;5070326;28;20207;-80
2023/07/21 05:09:49;;;;;;;9.07;4.28;;;;;;;34.99;37.19;94439.22;5070075;28;20210;-81
2023/07/21 05:12:16;;;;;;;8.18;4.30;;;;;;;35.64;35.97;94432.13;5068929;28;20203;-82
2023/07/21 05:14:44;;;;;;;10.77;5.13;;;;;;;36.16;35.14;94432.13;5070682;28;20238;-81
2023/07/21 05:17:11;;;;;;;8.13;4.60;;;;;;;35.87;36.22;94433.91;5069718;28;20692;-79
2023/07/21 05:19:38;;;;;;;6.75;4.65;;;;;;;36.04;35.55;94436.13;5070207;28;20203;-79
2023/07/21 05:22:06;;;;;;;10.52;4.95;;;;;;;36.85;34.86;94435.81;5070214;28;20235;-82
2023/07/21 05:24:32;;;;;;;6.07;4.75;;;;;;;36.81;34.60;94432.44;5070326;28;20291;-81
2023/07/21 05:27:01;;;;;;;10.95;5.43;;;;;;;35.90;35.94;94432.16;5072072;28;20229;-81
2023/07/21 05:29:27;;;;;;;10.68;5.07;;;;;;;36.25;35.20;94434.81;5069838;28;20280;-81
2023/07/21 05:31:54;;;;;;;8.30;5.35;;;;;;;36.80;34.63;94422.41;5069551;28;20372;-81
2023/07/21 05:34:22;;;;;;;7.43;4.70;;;;;;;36.75;34.04;94442.94;5069964;28;20202;-82
2023/07/21 05:36:49;;;;;;;6.72;4.97;;;;;;;36.79;34.25;94432.16;5069913;28;20681;-82
2023/07/21 05:39:16;;;;;;;6.95;4.68;;;;;;;36.42;35.19;94438.53;5069538;28;20272;-83
2023/07/21 05:41:42;;;;;;;7.95;5.35;;;;;;;36.10;35.65;94437.72;5070570;28;20203;-82
2023/07/21 05:44:12;;;;;;;11.95;4.85;;;;;;;35.29;37.41;94440.66;5069442;28;20210;-81
2023/07/21 05:46:40;;;;;;;10.70;5.90;;;;;;;34.96;37.49;94440.97;5069391;28;20206;-82
2023/07/21 05:49:07;;;;;;;9.23;5.40;;;;;;;33.48;39.99;94445.09;5069482;28;20245;-83
2023/07/21 05:51:34;;;;;;;12.00;5.20;;;;;;;34.58;38.83;94456.00;5069488;28;20281;-80
2023/07/21 05:54:01;;;;;;;8.35;5.18;;;;;;;34.93;37.99;94453.22;5069783;28;20198;-82
2023/07/21 05:56:28;;;;;;;8.40;5.00;;;;;;;35.37;37.28;94452.31;5069759;28;20268;-82
2023/07/21 05:58:54;;;;;;;8.65;5.13;;;;;;;34.54;38.89;94450.59;5069064;28;20471;-81
2023/07/21 06:01:24;;;;;;;8.32;4.97;;;;;;;34.81;37.88;94451.50;5071412;28;20203;-81
2023/07/21 06:03:51;;;;;;;6.55;4.50;;;;;;;34.35;38.73;94443.63;5068762;28;20680;-82
2023/07/21 06:06:17;;;;;;;8.55;4.57;;;;;;;36.33;36.43;94444.38;5079335;28;20203;-82
2023/07/21 06:08:44;;;;;;;11.75;4.18;;;;;;;37.51;34.25;94440.25;5069718;28;20207;-82
2023/07/21 06:11:11;;;;;;;7.85;4.70;;;;;;;36.96;34.43;94441.50;5069080;28;20783;-82
2023/07/21 06:13:38;;;;;;;6.88;4.63;;;;;;;36.68;35.02;94442.06;5069202;28;20207;-83
2023/07/21 06:16:05;;;;;;;11.05;5.78;;;;;;;37.51;33.88;94440.25;5069571;28;20253;-83
2023/07/21 06:18:35;;;;;;;9.70;5.00;;;;;;;35.26;36.88;94445.22;5069141;28;20195;-77
2023/07/21 06:21:03;;;;;;;6.65;5.20;;;;;;;36.31;35.06;94444.09;5068697;28;20235;-82
2023/07/21 06:23:30;;;;;;;9.65;5.22;;;;;;;37.94;33.04;94441.72;5069378;28;20237;-82
2023/07/21 06:25:56;;;;;;;6.68;4.55;;;;;;;37.76;32.82;94438.56;5069732;28;20210;-82
2023/07/21 06:28:23;;;;;;;8.20;4.85;;;;;;;38.80;31.87;94427.88;5069651;28;20237;-81
2023/07/21 06:30:50;;;;;;;10.32;4.78;;;;;;;37.48;33.90;94429.97;5068864;28;20238;-78
2023/07/21 06:33:17;;;;;;;10.35;5.40;;;;;;;37.64;33.63;94420.81;5069104;28;20187;-81
2023/07/21 06:35:45;;;;;;;8.45;5.60;;;;;;;37.12;34.44;94420.28;5069445;28;20252;-81
2023/07/21 06:38:12;;;;;;;11.27;5.65;;;;;;;35.67;36.64;94431.13;5076084;28;20206;-82
2023/07/21 06:40:38;;;;;;;7.50;5.35;;;;;;;36.33;35.64;94424.63;5068740;28;20253;-83
2023/07/21 06:43:05;;;;;;;9.50;4.65;;;;;;;36.48;35.26;94422.44;5068764;28;20810;-81
2023/07/21 06:45:33;;;;;;;6.95;4.95;;;;;;;36.64;35.43;94426.63;5069120;28;20202;-80
2023/07/21 06:48:00;;;;;;;10.52;5.60;;;;;;;36.50;34.90;94433.22;5068826;28;20387;-81
2023/07/21 06:50:27;;;;;;;10.18;5.10;;;;;;;35.30;36.82;94433.75;5068734;28;20606;-80
2023/07/21 06:52:55;;;;;;;7.72;5.55;;;;;;;35.24;36.64;94438.53;5065676;28;20206;-77
2023/07/21 06:55:22;;;;;;;8.48;5.57;;;;;;;35.46;36.14;94427.56;5065507;28;20202;-82
2023/07/21 06:57:49;;;;;;;8.45;5.20;;;;;;;36.57;35.05;94422.25;5068613;28;20202;-82
2023/07/21 07:00:16;;;;;;;8.30;5.05;;;;;;;37.28;34.29;94423.22;5068379;28;20693;-80
2023/07/21 07:02:47;;;;;;;10.32;5.82;;;;;;;36.68;34.96;94427.97;5068225;28;20202;-81
2023/07/21 07:05:14;;;;;;;10.00;6.25;;;;;;;35.97;36.54;94432.47;5067386;28;20584;-79
2023/07/21 07:07:41;;;;;;;9.55;6.65;;;;;;;33.66;40.24;94435.69;5067811;28;20191;-80
2023/07/21 07:10:10;;;;;;;8.77;6.75;;;;;;;34.70;38.67;94420.38;5067803;28;20191;-83
2023/07/21 07:12:37;;;;;;;9.30;6.18;;;;;;;35.33;37.27;94423.56;5068406;28;20218;-82
2023/07/21 07:15:04;;;;;;;10.55;6.35;;;;;;;35.75;36.04;94425.84;5068262;28;20202;-83
2023/07/21 07:17:31;;;;;;;13.80;6.30;;;;;;;35.08;37.04;94420.16;5068345;28;20665;-81
2023/07/21 07:19:58;;;;;;;5.75;5.15;;;;;;;34.28;37.56;94426.38;5067894;28;20650;-78
2023/07/21 07:22:25;;;;;;;9.02;5.75;;;;;;;34.24;38.38;94432.16;5068081;28;20199;-81
2023/07/21 07:24:52;;;;;;;11.10;6.20;;;;;;;35.34;36.55;94419.47;5068034;28;20227;-81
2023/07/21 07:27:20;;;;;;;10.90;5.97;;;;;;;35.59;36.78;94424.38;5068290;28;20195;-83
2023/07/21 07:29:47;;;;;;;8.27;5.10;;;;;;;35.88;36.29;94424.19;5067466;28;20219;-81
2023/07/21 07:32:15;;;;;;;9.95;5.82;;;;;;;35.67;35.77;94419.84;5067353;28;20538;-82
2023/07/21 07:34:42;;;;;;;12.77;5.40;;;;;;;35.56;37.21;94422.53;5068282;28;20298;-82
2023/07/21 07:37:08;;;;;;;11.43;5.40;;;;;;;35.44;35.82;94420.84;5072666;28;20565;-82
2023/07/21 07:39:36;;;;;;;7.75;5.15;;;;;;;35.63;36.10;94424.94;5080674;28;20206;-83
2023/07/21 07:42:02;;;;;;;9.65;4.70;;;;;;;35.66;35.10;94412.66;5071279;28;20199;-82
2023/07/21 07:44:31;;;;;;;9.52;5.22;;;;;;;36.28;33.85;94414.06;5071661;28;20203;-84
2023/07/21 07:46:58;;;;;;;12.25;5.45;;;;;;;35.27;35.49;94415.03;5071540;28;20620;-81
2023/07/21 07:49:25;;;;;;;10.32;5.53;;;;;;;35.50;35.25;94413.25;5071832;28;20394;-82
2023/07/21 07:51:52;;;;;;;6.70;5.32;;;;;;;35.29;35.33;94409.66;5071515;28;20249;-82
2023/07/21 07:54:19;;;;;;;9.13;5.13;;;;;;;34.96;36.41;94412.06;5071661;28;20203;-82
2023/07/21 07:56:50;;;;;;;8.52;4.93;;;;;;;35.79;34.59;94415.91;5071605;28;20198;-82
2023/07/21 07:59:18;;;;;;;10.15;4.65;;;;;;;35.60;34.26;94414.63;5072588;28;20245;-83
2023/07/21 08:01:46;;;;;;;8.82;5.03;;;;;;;36.05;34.21;94415.13;5072047;28;20312;-82
2023/07/21 08:04:12;;;;;;;8.25;4.82;;;;;;;35.25;35.76;94418.31;5063729;28;20618;-82
2023/07/21 08:06:40;;;;;;;10.73;5.60;;;;;;;34.81;36.87;94417.72;5070995;28;20237;-80
2023/07/21 08:09:09;;;;;;;10.48;5.75;;;;;;;33.74;38.64;94423.59;5070443;28;20298;-81
2023/07/21 08:11:37;;;;;;;7.63;5.32;;;;;;;33.72;38.56;94414.88;5072265;28;20285;-81
2023/07/21 08:14:05;;;;;;;9.38;5.68;;;;;;;33.95;37.85;94404.81;5070632;28;20230;-81
2023/07/21 08:16:31;;;;;;;9.68;5.35;;;;;;;32.45;40.00;94408.88;5069267;28;20195;-80
2023/07/21 08:19:00;;;;;;;13.25;5.97;;;;;;;32.81;39.43;94410.72;5069225;28;20264;-81
2023/07/21 08:21:27;;;;;;;11.32;5.40;;;;;;;31.85;40.89;94413.75;5067852;28;20211;-82
2023/07/21 08:23:54;;;;;;;9.57;5.55;;;;;;;31.22;41.98;94423.75;5069997;28;20283;-81
2023/07/21 08:26:22;;;;;;;9.07;5.05;;;;;;;31.54;41.66;94417.53;5069862;28;20300;-81
2023/07/21 08:28:52;;;;;;;6.50;5.30;;;;;;;31.62;40.80;94421.53;5077798;28;20643;-81
2023/07/21 08:31:19;;;;;;;9.25;5.00;;;;;;;32.76;38.51;94402.22;5068410;28;20717;-81
2023/07/21 08:33:46;;;;;;;10.85;4.78;;;;;;;32.60;38.51;94411.00;5071114;28;20300;-77
2023/07/21 08:36:14;;;;;;;7.95;4.90;;;;;;;33.17;37.70;94415.31;5078102;28;20198;-80
2023/07/21 08:38:41;;;;;;;8.95;4.70;;;;;;;32.21;38.37;94402.47;5069272;28;20223;-82
2023/07/21 08:41:09;;;;;;;6.93;4.40;;;;;;;32.34;35.67;94405.81;5069677;28;20206;-78
2023/07/21 08:43:37;;;;;;;6.85;4.60;;;;;;;33.20;36.24;94405.19;5071606;28;20203;-80
2023/07/21 08:46:05;;;;;;;8.75;4.70;;;;;;;33.74;36.31;94401.13;5069112;28;20207;-81
2023/07/21 08:48:33;;;;;;;8.85;4.65;;;;;;;33.78;35.88;94400.94;5069282;28;20203;-79
2023/07/21 08:51:00;;;;;;;9.85;5.00;;;;;;;34.16;35.50;94408.50;5081142;28;20198;-80
2023/07/21 08:53:28;;;;;;;10.93;5.15;;;;;;;32.46;37.47;94418.84;5070020;28;20236;-82
2023/07/21 08:55:56;;;;;;;8.73;5.00;;;;;;;32.27;38.01;94408.97;5069053;28;20199;-81
2023/07/21 08:58:23;;;;;;;8.00;4.80;;;;;;;32.15;38.75;94404.31;5075568;28;20194;-78
2023/07/21 09:00:51;;;;;;;10.10;4.97;;;;;;;32.19;39.71;94406.97;5070553;28;20203;-82
2023/07/21 09:03:24;;;;;;;9.88;4.68;;;;;;;32.35;38.31;94415.03;5068663;28;20209;-81
2023/07/21 09:05:52;;;;;;;10.52;4.43;;;;;;;32.28;38.95;94407.72;5068907;28;20238;-82
2023/07/21 09:08:20;;;;;;;8.25;4.97;;;;;;;32.49;38.85;94401.09;5070841;28;20245;-83
2023/07/21 09:10:48;;;;;;;13.20;4.95;;;;;;;31.34;40.83;94409.59;5066897;28;20676;-81
2023/07/21 09:13:16;;;;;;;10.00;5.32;;;;;;;30.89;41.34;94421.50;5068263;28;20673;-81
2023/07/21 09:15:51;;;;;;;9.23;4.90;;;;;;;31.01;40.72;94426.22;5065922;28;20203;-80
2023/07/21 09:18:18;;;;;;;10.20;4.85;;;;;;;31.97;39.99;94398.78;5067228;28;20235;-79
2023/07/21 09:20:49;;;;;;;6.95;4.68;;;;;;;32.24;38.93;94407.13;5076660;28;20344;-81
2023/07/21 09:23:19;;;;;;;7.95;4.95;;;;;;;32.94;38.11;94396.44;5079787;28;20667;-81
2023/07/21 09:25:53;;;;;;;7.00;4.65;;;;;;;32.52;39.39;94398.59;5090581;28;20198;-81
2023/07/21 09:28:20;;;;;;;10.05;5.20;;;;;;;32.23;39.27;94402.00;5089921;28;20317;-83
2023/07/21 09:30:52;;;;;;;6.63;4.95;;;;;;;32.42;39.72;94395.81;5090441;28;20202;-82
2023/07/21 09:33:24;;;;;;;11.55;5.03;;;;;;;32.66;39.26;94386.66;5090457;28;20329;-82
2023/07/21 09:35:51;;;;;;;10.15;4.95;;;;;;;33.17;38.13;94387.25;5089692;28;20614;-82
2023/07/21 09:38:18;;;;;;;7.93;4.72;;;;;;;33.30;38.42;94389.03;5089338;28;20264;-81
2023/07/21 09:40:45;;;;;;;13.25;5.07;;;;;;;32.71;39.30;94394.41;5090348;28;20207;-79
2023/07/21 09:43:15;;;;;;;8.57;4.93;;;;;;;32.71;39.43;94383.19;5090488;28;20640;-81
2023/07/21 09:45:42;;;;;;;7.70;5.10;;;;;;;33.05;39.32;94379.88;5073799;28;20522;-81
2023/07/21 09:48:11;;;;;;;9.00;5.03;;;;;;;32.01;40.07;94382.56;5064907;28;20272;-76
2023/07/21 09:50:38;;;;;;;8.75;4.95;;;;;;;32.04;40.90;94388.00;5069529;28;20245;-83
2023/07/21 09:53:05;;;;;;;9.20;5.10;;;;;;;32.26;40.98;94382.16;5069035;28;20249;-81
2023/07/21 09:55:40;;;;;;;7.82;4.65;;;;;;;32.88;39.83;94364.69;5069097;28;20761;-80
2023/07/21 09:58:11;;;;;;;8.80;4.93;;;;;;;32.62;39.60;94374.81;5068651;28;20748;-78
2023/07/21 10:00:41;;;;;;;6.63;4.60;;;;;;;33.01;38.78;94375.69;5070538;28;20222;-81
2023/07/21 10:03:08;;;;;;;11.57;4.80;;;;;;;32.88;39.46;94373.13;5069336;28;20670;-81
2023/07/21 10:05:38;;;;;;;8.15;4.97;;;;;;;32.60;39.63;94377.34;5069899;28;20298;-82
2023/07/21 10:08:09;;;;;;;8.30;4.40;;;;;;;32.98;39.56;94374.59;5069534;28;20207;-81
2023/07/21 10:10:36;;;;;;;8.20;4.50;;;;;;;33.08;38.77;94373.25;5069211;28;20242;-82
2023/07/21 10:13:07;;;;;;;7.22;4.60;;;;;;;32.52;39.54;94376.13;5068757;28;20231;-82
2023/07/21 10:15:35;;;;;;;9.68;5.22;;;;;;;32.79;40.32;94367.59;5069640;28;20203;-84
2023/07/21 10:18:06;;;;;;;7.90;4.70;;;;;;;33.19;39.72;94369.94;5069234;28;20729;-78
2023/07/21 10:20:38;;;;;;;6.13;4.82;;;;;;;33.02;38.85;94375.19;5069428;28;20207;-83
2023/07/21 10:23:05;;;;;;;8.05;4.45;;;;;;;32.67;39.53;94365.75;5069197;28;20591;-78
2023/07/21 10:25:47;;;;;;;11.98;5.20;;;;;;;32.67;41.03;94368.53;5069417;28;20527;-80
2023/07/21 10:28:14;;;;;;;8.77;4.97;;;;;;;33.31;39.54;94368.91;5068805;28;20230;-82
2023/07/21 10:30:41;;;;;;;8.95;5.05;;;;;;;33.86;38.55;94363.53;5069390;28;20657;-81
2023/07/21 10:33:17;;;;;;;11.10;4.97;;;;;;;33.70;38.45;94366.81;5068886;28;20238;-80
2023/07/21 10:35:44;;;;;;;10.73;5.18;;;;;;;34.19;37.51;94368.13;5069048;28;20681;-80
2023/07/21 10:38:24;;;;;;;8.60;4.40;;;;;;;34.13;37.83;94353.22;5069355;28;20210;-80
2023/07/21 10:40:51;;;;;;;6.15;4.72;;;;;;;33.73;37.72;94359.44;5069551;28;20203;-78
2023/07/21 10:43:18;;;;;;;10.82;5.03;;;;;;;33.61;38.34;94361.28;5068548;28;20218;-82
2023/07/21 10:45:53;;;;;;;11.10;4.95;;;;;;;33.76;37.35;94356.44;5068981;28;20203;-78
2023/07/21 10:48:25;;;;;;;9.40;4.70;;;;;;;33.91;37.29;94347.22;5068546;28;20300;-79
2023/07/21 10:50:58;;;;;;;9.15;4.78;;;;;;;34.36;36.85;94343.88;5068596;28;20743;-80
2023/07/21 10:53:26;;;;;;;9.85;4.57;;;;;;;33.10;37.88;94353.91;5068958;28;20313;-83
2023/07/21 10:55:53;;;;;;;10.68;4.85;;;;;;;32.86;38.98;94344.75;5068575;28;20634;-81
2023/07/21 10:58:20;;;;;;;9.35;4.95;;;;;;;33.43;37.97;94341.81;5087136;28;20301;-80
2023/07/21 11:00:48;;;;;;;7.80;4.82;;;;;;;33.55;38.49;94335.13;5076781;28;20291;-81
2023/07/21 11:03:16;;;;;;;7.53;5.63;;;;;;;34.08;37.00;94334.22;5068268;28;20206;-81
2023/07/21 11:05:44;;;;;;;12.02;5.22;;;;;;;34.38;35.82;94335.75;5069062;28;20211;-81
2023/07/21 11:08:25;;;;;;;10.23;5.47;;;;;;;34.87;35.23;94337.69;5068117;28;20275;-82
2023/07/21 11:10:52;;;;;;;9.55;4.88;;;;;;;35.00;34.73;94328.13;5068006;28;20260;-80
2023/07/21 11:13:18;;;;;;;8.30;4.70;;;;;;;34.64;35.03;94329.44;5068173;28;20292;-80
2023/07/21 11:15:51;;;;;;;7.20;4.55;;;;;;;34.87;34.89;94322.84;5068286;28;20206;-80
2023/07/21 11:18:18;;;;;;;9.75;4.50;;;;;;;34.50;34.31;94326.19;5068298;28;20203;-80
2023/07/21 11:20:51;;;;;;;15.75;5.15;;;;;;;34.53;34.26;94330.06;5068641;28;20210;-79
2023/07/21 11:23:18;;;;;;;8.70;4.78;;;;;;;34.42;34.96;94324.28;5068610;28;20569;-79
2023/07/21 11:26:00;;;;;;;12.20;4.95;;;;;;;34.85;34.04;94322.59;5068446;28;20209;-81
2023/07/21 11:28:28;;;;;;;9.48;4.70;;;;;;;34.55;34.68;94330.34;5068115;28;20223;-76
2023/07/21 11:30:55;;;;;;;8.40;5.00;;;;;;;34.19;35.73;94323.13;5068384;28;20207;-82
2023/07/21 11:33:22;;;;;;;7.85;4.43;;;;;;;33.43;35.61;94324.94;5068317;28;20643;-76
2023/07/21 11:35:50;;;;;;;10.40;4.47;;;;;;;33.05;36.48;94312.47;5068065;28;20298;-77